• Join FlightAware (Why Join?)
  • Login
  • US Flag 
Rudolph Flight #1: Arrived! 
12:39AM EST


 

Airport Tracker/Info


-or-


 

Live Flight TrackerFlight Track Log ✈ CSJ405 ✈ 03-May-2013 ✈ CYHM - KCAK

Flight Track Log - Related Links

Times and Time Zones

All times are in EDT time to prevent confusion due to time zone crossing. See the CSJ405 flight status page for this flight to view local times or setup timezone preferences in your user account.

Time Position Orientation Groundspeed Altitude Reporting Facility
EDT Latitude Longitude Course Direction KTS MPH feet Rate Location/Type
11:32PM 43.1500 -79.9333 209° Southwest 90 104 1,200  Level Toronto Center
11:33PM 43.1333 -79.9500 216° Southwest 100 115 2,100 960 Climbing Toronto Center
11:34PM 43.1167 -79.9833 236° Southwest 90 104 3,200 960 Climbing Toronto Center
11:35PM 43.1000 -80.0000 216° Southwest 90 104 4,100 900 Climbing Toronto Center
11:36PM 43.0833 -80.0000 180° South 100 115 5,100 960 Climbing Toronto Center
11:37PM 43.0500 -80.0167 200° South 100 115 6,100 900 Climbing Toronto Center
11:38PM 42.9912 -80.0483 209° Southwest  Level FlightAware Approximate
11:38PM 43.0333 -80.0500 236° Southwest 110 127 7,000  Level Toronto Center
11:39PM 43.0000 -80.0667 200° South 110 127 7,900 900 Climbing Toronto Center
11:40PM 42.9667 -80.0833 200° South 110 127 8,900 900 Climbing Toronto Center
11:41PM 42.9333 -80.1167 216° Southwest 120 138 9,700 540 Climbing Toronto Center
11:42PM 42.9000 -80.1333 200° South 140 161 10,000 120 Climbing Toronto Center
11:43PM 42.8667 -80.1500 200° South 160 184 10,000  Level Toronto Center
11:44PM 42.8167 -80.2000 216° Southwest 170 196 10,000 -60 Level Toronto Center
11:45PM 42.7833 -80.2167 200° South 180 207 9,900  Descending Toronto Center
11:46PM 42.7333 -80.2500 206° Southwest 170 196 10,000  Climbing Toronto Center
11:47PM 42.6833 -80.2667 194° South 170 196 10,000  Level Toronto Center
11:48PM 42.6500 -80.3167 228° Southwest 170 196 10,000  Level Toronto Center
11:49PM 42.6000 -80.3333 194° South 170 196 10,000  Level Toronto Center
11:50PM 42.5667 -80.3500 200° South 170 196 10,000  Level Toronto Center
11:51PM 42.5333 -80.3833 216° Southwest 170 196 10,000  Level Toronto Center
11:52PM 42.4833 -80.4000 194° South 170 196 10,000  Level Toronto Center
11:53PM 42.4500 -80.4500 228° Southwest 170 196 10,000  Level Toronto Center
11:54PM 42.4000 -80.4667 194° South 170 196 10,000  Level Toronto Center
11:55PM 42.3667 -80.4833 200° South 170 196 10,000  Level Toronto Center
11:56PM 42.3167 -80.5167 206° Southwest 170 196 10,000  Level Toronto Center
11:57PM 42.2833 -80.5500 216° Southwest 170 196 10,000  Level Toronto Center
11:58PM 42.2333 -80.5833 206° Southwest 170 196 10,000  Level Toronto Center
11:59PM 42.2000 -80.6000 200° South 170 196 10,000  Level Toronto Center
12:00AM 42.1500 -80.6500 217° Southwest 170 196 10,000  Level Toronto Center
12:01AM 42.1167 -80.6667 200° South 170 196 10,000  Level Toronto Center
12:02AM 42.0667 -80.6833 194° South 170 196 10,000  Level Toronto Center
12:03AM 42.0167 -80.7167 206° Southwest 170 196 10,000  Level Toronto Center
12:04AM 41.9833 -80.7500 217° Southwest 170 196 10,000  Level Toronto Center
12:05AM 41.9347 -80.7953 215° Southwest 178 205 10,000  Level Cleveland Center
12:06AM 41.8908 -80.8258 207° Southwest 178 205 10,000  Level Cleveland Center
12:07AM 41.8492 -80.8508 204° Southwest 178 205 10,000  Level Cleveland Center
12:08AM 41.8075 -80.8783 206° Southwest 178 205 10,000  Level Cleveland Center
12:09AM 41.7636 -80.9089 207° Southwest 178 205 10,000  Level Cleveland Center
12:10AM 41.7239 -80.9308 202° Southwest 178 205 10,000  Level Cleveland Center
12:12AM 41.6822 -80.9583 206° Southwest 178 205 10,000  Level Cleveland Center
12:12AM 41.6403 -80.9861 206° Southwest 178 205 10,000  Level Cleveland Center
12:13AM 41.5986 -81.0108 204° Southwest 178 205 10,000  Level Cleveland Center
12:14AM 41.5567 -81.0408 208° Southwest 178 205 10,000  Level Cleveland Center
12:15AM 41.5150 -81.0656 204° Southwest 178 205 10,000 -120 Level Cleveland Center
12:16AM 41.4689 -81.0986 208° Southwest 178 205 9,800 -300 Descending Cleveland Center
12:17AM 41.4231 -81.1231 202° Southwest 178 205 9,400 -480 Descending Cleveland Center
12:19AM 41.3792 -81.1503 205° Southwest 178 205 8,900 -480 Descending Cleveland Center
12:19AM 41.3331 -81.1831 208° Southwest 178 205 8,500 -480 Descending Cleveland Center
12:20AM 41.2869 -81.2103 204° Southwest 178 205 8,000 -540 Descending Cleveland Center
12:21AM 41.2431 -81.2375 205° Southwest 178 205 7,500 -540 Descending Cleveland Center
12:22AM 41.1969 -81.2675 206° Southwest 178 205 7,000 -600 Descending Cleveland Center
12:23AM 41.1553 -81.2947 206° Southwest 178 205 6,300 -900 Descending Cleveland Center
12:24AM 41.1133 -81.3300 212° Southwest 183 211 5,300 -1,020 Descending Cleveland Center
12:25AM 41.0692 -81.3625 209° Southwest 183 211 4,300 -900 Descending Cleveland Center
12:26AM 41.0294 -81.3922 209° Southwest 178 205 3,500 -900 Descending Cleveland Center
12:27AM 40.9917 -81.4167 206° Southwest 170 196 2,600 -900 Descending Cleveland Center
12:28AM 40.9458 -81.4408 202° Southwest 165 190 1,800 -600 Descending Cleveland Center
12:29AM 40.9122 -81.4569 200° South 146 168 1,500 -300 Descending Cleveland Center
12:31AM 40.9151 -81.4436 North  Level Estimated